createdAt,value
2023-04-10T00:00:57.674Z,102264.00
2023-04-10T00:03:27.662Z,102260.00
2023-04-10T00:05:57.676Z,102265.00
2023-04-10T00:08:27.285Z,102261.00
2023-04-10T00:10:57.285Z,102269.00
2023-04-10T00:13:26.080Z,102268.00
2023-04-10T00:15:54.693Z,102271.00
2023-04-10T00:18:23.334Z,102270.00
2023-04-10T00:20:51.911Z,102266.00
2023-04-10T00:23:20.473Z,102265.00
2023-04-10T00:25:49.765Z,102271.00
2023-04-10T00:28:19.721Z,102257.00
2023-04-10T00:30:48.321Z,102258.00
2023-04-10T00:33:17.045Z,102254.00
2023-04-10T00:35:45.760Z,102266.00
2023-04-10T00:38:14.723Z,102263.00
2023-04-10T00:40:43.371Z,102268.00
2023-04-10T00:43:12.276Z,102270.00
2023-04-10T00:45:42.650Z,102258.00
2023-04-10T00:48:12.050Z,102267.00
2023-04-10T00:50:40.880Z,102264.00
2023-04-10T00:53:09.594Z,102261.00
2023-04-10T00:55:38.588Z,102268.00
2023-04-10T00:58:08.041Z,102259.00
2023-04-10T01:00:36.716Z,102267.00
2023-04-10T01:03:07.012Z,102265.00
2023-04-10T01:05:43.118Z,102265.00
2023-04-10T01:08:28.525Z,102273.00
2023-04-10T01:11:06.502Z,102264.00
2023-04-10T01:13:45.119Z,102267.00
2023-04-10T01:16:27.953Z,102267.00
2023-04-10T01:19:13.684Z,102263.00
2023-04-10T01:21:44.022Z,102257.00
2023-04-10T01:24:26.084Z,102255.00
2023-04-10T01:27:13.778Z,102263.00
2023-04-10T01:29:53.408Z,102269.00
2023-04-10T01:32:25.553Z,102271.00
2023-04-10T01:34:59.981Z,102268.00
2023-04-10T01:37:33.636Z,102270.00
2023-04-10T01:40:07.127Z,102268.00
2023-04-10T01:42:41.989Z,102277.00
2023-04-10T01:45:20.169Z,102267.00
2023-04-10T01:47:51.410Z,102271.00
2023-04-10T01:50:23.515Z,102270.00
2023-04-10T01:52:53.034Z,102272.00
2023-04-10T01:55:26.241Z,102261.00
2023-04-10T01:58:04.906Z,102260.00
2023-04-10T02:00:41.335Z,102263.00
2023-04-10T02:03:10.649Z,102268.00
2023-04-10T02:05:54.487Z,102270.00
2023-04-10T02:08:36.116Z,102260.00
2023-04-10T02:11:17.198Z,102275.00
2023-04-10T02:13:47.331Z,102267.00
2023-04-10T02:16:23.250Z,102262.00
2023-04-10T02:18:54.960Z,102260.00
2023-04-10T02:21:23.601Z,102271.00
2023-04-10T02:23:53.033Z,102260.00
2023-04-10T02:26:21.801Z,102257.00
2023-04-10T02:28:50.404Z,102263.00
2023-04-10T02:31:20.582Z,102268.00
2023-04-10T02:33:49.910Z,102266.00
2023-04-10T02:36:18.886Z,102272.00
2023-04-10T02:38:47.655Z,102267.00
2023-04-10T02:41:17.115Z,102269.00
2023-04-10T02:43:45.952Z,102267.00
2023-04-10T02:46:14.740Z,102263.00
2023-04-10T02:48:45.155Z,102257.00
2023-04-10T02:51:14.197Z,102270.00
2023-04-10T02:53:42.935Z,102266.00
2023-04-10T02:56:12.790Z,102263.00
2023-04-10T02:58:45.535Z,102268.00
2023-04-10T03:01:16.278Z,102266.00
2023-04-10T03:03:48.553Z,102273.00
2023-04-10T03:06:27.352Z,102277.00
2023-04-10T03:08:57.442Z,102271.00
2023-04-10T03:11:26.093Z,102270.00
2023-04-10T03:13:55.107Z,102278.00
2023-04-10T03:16:24.083Z,102274.00
2023-04-10T03:18:54.470Z,102277.00
2023-04-10T03:21:23.291Z,102278.00
2023-04-10T03:23:52.636Z,102279.00
2023-04-10T03:26:24.128Z,102283.00
2023-04-10T03:28:53.578Z,102281.00
2023-04-10T03:31:22.337Z,102276.00
2023-04-10T03:33:56.321Z,102276.00
2023-04-10T03:36:25.346Z,102280.00
2023-04-10T03:38:55.528Z,102264.00
2023-04-10T03:41:25.687Z,102273.00
2023-04-10T03:43:54.766Z,102274.00
2023-04-10T03:46:23.962Z,102272.00
2023-04-10T03:48:54.247Z,102269.00
2023-04-10T03:51:26.744Z,102265.00
2023-04-10T03:53:55.977Z,102274.00
2023-04-10T03:56:24.909Z,102271.00
2023-04-10T03:58:53.536Z,102274.00
2023-04-10T04:01:22.965Z,102270.00
2023-04-10T04:04:06.117Z,102273.00
2023-04-10T04:06:54.332Z,102272.00
2023-04-10T04:09:49.268Z,102283.00
2023-04-10T04:12:23.024Z,102284.00
2023-04-10T04:15:18.125Z,102285.00
2023-04-10T04:18:05.319Z,102270.00
2023-04-10T04:20:39.421Z,102279.00
2023-04-10T04:23:35.618Z,102285.00
2023-04-10T04:26:11.629Z,102281.00
2023-04-10T04:29:02.108Z,102282.00
2023-04-10T04:31:54.257Z,102281.00
2023-04-10T04:34:37.201Z,102283.00
2023-04-10T04:37:28.322Z,102291.00
2023-04-10T04:40:17.636Z,102279.00
2023-04-10T04:43:01.595Z,102290.00
2023-04-10T04:45:56.822Z,102285.00
2023-04-10T04:48:51.640Z,102287.00
2023-04-10T04:51:38.513Z,102285.00
2023-04-10T04:54:27.052Z,102294.00
2023-04-10T04:57:17.225Z,102296.00
2023-04-10T04:59:57.676Z,102296.00
2023-04-10T05:02:46.258Z,102291.00
2023-04-10T05:05:50.510Z,102294.00
2023-04-10T05:08:37.848Z,102303.00
2023-04-10T05:11:25.054Z,102301.00
2023-04-10T05:14:13.694Z,102294.00
2023-04-10T05:17:02.903Z,102301.00
2023-04-10T05:19:47.348Z,102293.00
2023-04-10T05:22:41.150Z,102293.00
2023-04-10T05:25:36.410Z,102303.00
2023-04-10T05:28:30.943Z,102292.00
2023-04-10T05:31:20.697Z,102297.00
2023-04-10T05:33:57.739Z,102293.00
2023-04-10T05:36:45.337Z,102293.00
2023-04-10T05:39:25.396Z,102296.00
2023-04-10T05:42:11.619Z,102293.00
2023-04-10T05:44:54.158Z,102287.00
2023-04-10T05:47:44.130Z,102293.00
2023-04-10T05:50:42.222Z,102293.00
2023-04-10T05:53:33.715Z,102296.00
2023-04-10T05:56:22.697Z,102303.00
2023-04-10T05:58:59.944Z,102291.00
2023-04-10T06:01:48.376Z,102303.00
2023-04-10T06:04:19.096Z,102294.00
2023-04-10T06:06:48.349Z,102296.00
2023-04-10T06:09:17.019Z,102298.00
2023-04-10T06:11:45.758Z,102304.00
2023-04-10T06:14:20.352Z,102308.00
2023-04-10T06:16:49.176Z,102300.00
2023-04-10T06:19:19.247Z,102306.00
2023-04-10T06:21:47.946Z,102312.00
2023-04-10T06:24:16.575Z,102321.00
2023-04-10T06:26:49.418Z,102316.00
2023-04-10T06:29:18.143Z,102316.00
2023-04-10T06:31:46.870Z,102313.00
2023-04-10T06:34:15.619Z,102311.00
2023-04-10T06:36:55.528Z,102311.00
2023-04-10T06:39:25.156Z,102308.00
2023-04-10T06:41:54.552Z,102313.00
2023-04-10T06:44:35.034Z,102319.00
2023-04-10T06:47:03.940Z,102322.00
2023-04-10T06:49:32.746Z,102313.00
2023-04-10T06:52:02.792Z,102325.00
2023-04-10T06:54:31.476Z,102326.00
2023-04-10T06:57:00.056Z,102315.00
2023-04-10T06:59:29.245Z,102327.00
2023-04-10T07:01:57.892Z,102316.00
2023-04-10T07:04:26.605Z,102321.00
2023-04-10T07:06:55.194Z,102321.00
2023-04-10T07:09:27.610Z,102321.00
2023-04-10T07:11:56.562Z,102327.00
2023-04-10T07:14:25.318Z,102331.00
2023-04-10T07:16:54.160Z,102333.00
2023-04-10T07:19:22.814Z,102331.00
2023-04-10T07:32:03.125Z,102329.00
2023-04-10T07:34:33.210Z,102333.00
2023-04-10T07:37:01.737Z,102328.00
2023-04-10T07:39:30.400Z,102327.00
2023-04-10T07:41:58.985Z,102330.00
2023-04-10T07:44:28.692Z,102321.00
2023-04-10T07:46:57.288Z,102321.00
2023-04-10T07:49:27.370Z,102316.00
2023-04-10T07:51:55.981Z,102314.00
2023-04-10T07:54:24.738Z,102319.00
2023-04-10T07:56:53.997Z,102314.00
2023-04-10T07:59:22.665Z,102312.00
2023-04-10T08:01:51.523Z,102325.00
2023-04-10T08:04:20.291Z,102318.00
2023-04-10T08:06:50.686Z,102313.00
2023-04-10T08:09:19.320Z,102313.00
2023-04-10T08:11:48.543Z,102312.00
2023-04-10T08:14:22.696Z,102308.00
2023-04-10T08:16:52.900Z,102313.00
2023-04-10T08:19:21.572Z,102318.00
2023-04-10T08:21:51.704Z,102304.00
2023-04-10T08:24:22.910Z,102305.00
2023-04-10T08:26:51.580Z,102303.00
2023-04-10T08:29:20.214Z,102310.00
2023-04-10T08:31:49.762Z,102300.00
2023-04-10T08:34:18.440Z,102300.00
2023-04-10T08:36:48.641Z,102307.00
2023-04-10T08:39:25.657Z,102296.00
2023-04-10T08:41:57.384Z,102293.00
2023-04-10T08:44:26.019Z,102307.00
2023-04-10T08:46:55.786Z,102296.00
2023-04-10T08:49:33.700Z,102296.00
2023-04-10T08:52:08.431Z,102293.00
2023-04-10T08:54:41.776Z,102292.00
2023-04-10T08:57:17.725Z,102289.00
2023-04-10T08:59:46.753Z,102290.00
2023-04-10T09:02:15.821Z,102292.00
2023-04-10T09:04:51.149Z,102287.00
2023-04-10T09:07:20.107Z,102282.00
2023-04-10T09:09:50.411Z,102279.00
2023-04-10T09:12:19.103Z,102279.00
2023-04-10T09:14:49.776Z,102272.00
2023-04-10T09:17:20.891Z,102272.00
2023-04-10T09:19:52.528Z,102270.00
2023-04-10T09:22:32.653Z,102273.00
2023-04-10T09:25:04.712Z,102270.00
2023-04-10T09:27:36.145Z,102271.00
2023-04-10T09:30:08.421Z,102266.00
2023-04-10T09:32:40.755Z,102272.00
2023-04-10T09:35:13.048Z,102266.00
2023-04-10T09:37:42.794Z,102265.00
2023-04-10T09:40:26.002Z,102273.00
2023-04-10T09:42:56.855Z,102262.00
2023-04-10T09:45:25.632Z,102266.00
2023-04-10T09:48:06.158Z,102269.00
2023-04-10T09:50:40.355Z,102261.00
2023-04-10T09:53:10.122Z,102259.00
2023-04-10T09:55:40.675Z,102257.00
2023-04-10T09:58:10.578Z,102256.00
2023-04-10T10:00:43.241Z,102247.00
2023-04-10T10:03:15.316Z,102250.00
2023-04-10T10:05:45.884Z,102254.00
2023-04-10T10:08:16.660Z,102243.00
2023-04-10T10:10:51.088Z,102250.00
2023-04-10T10:13:30.116Z,102248.00
2023-04-10T10:16:10.190Z,102243.00
2023-04-10T10:18:46.901Z,102253.00
2023-04-10T10:21:16.839Z,102249.00
2023-04-10T10:23:54.066Z,102246.00
2023-04-10T10:26:25.466Z,102247.00
2023-04-10T10:28:55.010Z,102239.00
2023-04-10T10:31:25.512Z,102233.00
2023-04-10T10:33:55.213Z,102237.00
2023-04-10T10:36:25.098Z,102251.00
2023-04-10T10:39:09.798Z,102244.00
2023-04-10T10:41:51.128Z,102241.00
2023-04-10T10:44:33.242Z,102233.00
2023-04-10T10:47:11.569Z,102236.00
2023-04-10T10:49:58.346Z,102226.00
2023-04-10T10:52:41.861Z,102225.00
2023-04-10T10:55:31.583Z,102228.00
2023-04-10T10:58:05.200Z,102228.00
2023-04-10T11:01:20.400Z,102231.00
2023-04-10T11:03:49.700Z,102226.00
2023-04-10T11:06:20.056Z,102223.00
2023-04-10T11:08:53.109Z,102220.00
2023-04-10T11:11:24.342Z,102226.00
2023-04-10T11:14:18.478Z,102213.00
2023-04-10T11:16:49.004Z,102212.00
2023-04-10T11:19:24.074Z,102216.00
2023-04-10T11:22:08.086Z,102205.00
2023-04-10T11:25:02.567Z,102198.00
2023-04-10T11:27:45.039Z,102197.00
2023-04-10T11:30:36.217Z,102197.00
2023-04-10T11:33:06.766Z,102199.00
2023-04-10T11:35:35.846Z,102195.00
2023-04-10T11:38:25.504Z,102194.00
2023-04-10T11:41:07.024Z,102187.00
2023-04-10T11:43:35.966Z,102191.00
2023-04-10T11:46:08.740Z,102188.00
2023-04-10T11:48:38.474Z,102185.00
2023-04-10T11:51:13.381Z,102184.00
2023-04-10T11:53:43.299Z,102178.00
2023-04-10T11:56:22.588Z,102180.00
2023-04-10T11:58:55.136Z,102169.00
2023-04-10T12:01:26.246Z,102172.00
2023-04-10T12:03:57.843Z,102174.00
2023-04-10T12:06:32.086Z,102164.00
2023-04-10T12:09:03.135Z,102169.00
2023-04-10T12:11:32.277Z,102165.00
2023-04-10T12:14:03.424Z,102164.00
2023-04-10T12:16:34.726Z,102162.00
2023-04-10T12:19:04.032Z,102159.00
2023-04-10T12:21:33.104Z,102157.00
2023-04-10T12:24:01.808Z,102164.00
2023-04-10T12:26:30.806Z,102154.00
2023-04-10T12:29:00.074Z,102152.00
2023-04-10T12:31:29.864Z,102150.00
2023-04-10T12:34:01.296Z,102137.00
2023-04-10T12:36:32.323Z,102140.00
2023-04-10T12:39:02.408Z,102136.00
2023-04-10T12:41:34.310Z,102137.00
2023-04-10T12:44:11.951Z,102139.00
2023-04-10T12:46:43.099Z,102130.00
2023-04-10T12:49:16.086Z,102135.00
2023-04-10T12:51:47.315Z,102134.00
2023-04-10T12:54:33.639Z,102137.00
2023-04-10T12:57:03.974Z,102127.00
2023-04-10T12:59:32.904Z,102120.00
2023-04-10T13:02:01.689Z,102114.00
2023-04-10T13:04:33.309Z,102116.00
2023-04-10T13:07:02.006Z,102116.00
2023-04-10T13:09:30.644Z,102116.00
2023-04-10T13:11:59.345Z,102115.00
2023-04-10T13:14:27.966Z,102111.00
2023-04-10T13:16:56.625Z,102108.00
2023-04-10T13:19:25.288Z,102104.00
2023-04-10T13:21:55.294Z,102105.00
2023-04-10T13:24:23.944Z,102099.00
2023-04-10T13:26:52.518Z,102101.00
2023-04-10T13:29:21.404Z,102099.00
2023-04-10T13:31:50.342Z,102097.00
2023-04-10T13:34:19.006Z,102091.00
2023-04-10T13:36:48.637Z,102094.00
2023-04-10T13:39:19.092Z,102098.00
2023-04-10T13:41:47.750Z,102099.00
2023-04-10T13:44:16.658Z,102095.00
2023-04-10T13:46:45.360Z,102091.00
2023-04-10T13:49:17.114Z,102092.00
2023-04-10T13:51:46.734Z,102084.00
2023-04-10T13:54:17.098Z,102088.00
2023-04-10T13:56:48.079Z,102083.00
2023-04-10T13:59:16.811Z,102086.00
2023-04-10T14:01:45.559Z,102081.00
2023-04-10T14:04:14.776Z,102072.00
2023-04-10T14:06:43.602Z,102064.00
2023-04-10T14:09:12.392Z,102067.00
2023-04-10T14:11:40.974Z,102062.00
2023-04-10T14:14:11.395Z,102063.00
2023-04-10T14:16:40.100Z,102062.00
2023-04-10T14:19:08.776Z,102071.00
2023-04-10T14:21:37.605Z,102063.00
2023-04-10T14:24:06.290Z,102057.00
2023-04-10T14:26:34.976Z,102059.00
2023-04-10T14:29:03.739Z,102056.00
2023-04-10T14:31:35.744Z,102053.00
2023-04-10T14:34:07.816Z,102052.00
2023-04-10T14:36:36.487Z,102049.00
2023-04-10T14:39:05.232Z,102046.00
2023-04-10T14:41:33.774Z,102050.00
2023-04-10T14:44:03.423Z,102044.00
2023-04-10T14:46:33.487Z,102049.00
2023-04-10T14:49:02.189Z,102056.00
2023-04-10T14:51:30.998Z,102047.00
2023-04-10T14:53:59.641Z,102051.00
2023-04-10T14:56:28.340Z,102060.00
2023-04-10T14:58:57.031Z,102054.00
2023-04-10T15:01:25.695Z,102049.00
2023-04-10T15:03:55.961Z,102059.00
2023-04-10T15:06:25.209Z,102041.00
2023-04-10T15:08:53.915Z,102048.00
2023-04-10T15:11:22.750Z,102054.00
2023-04-10T15:13:51.485Z,102047.00
2023-04-10T15:16:22.648Z,102036.00
2023-04-10T15:18:53.827Z,102043.00
2023-04-10T15:21:31.636Z,102044.00
2023-04-10T15:24:10.744Z,102048.00
2023-04-10T15:26:46.258Z,102039.00
2023-04-10T15:29:15.499Z,102032.00
2023-04-10T15:31:44.079Z,102035.00
2023-04-10T15:34:12.740Z,102033.00
2023-04-10T15:36:42.737Z,102038.00
2023-04-10T15:39:11.928Z,102030.00
2023-04-10T15:41:40.616Z,102031.00
2023-04-10T15:44:09.328Z,102026.00
2023-04-10T15:46:38.051Z,102024.00
2023-04-10T15:49:06.697Z,102023.00
2023-04-10T15:51:35.337Z,102024.00
2023-04-10T15:54:05.794Z,102014.00
2023-04-10T15:56:34.709Z,102016.00
2023-04-10T15:59:03.369Z,102004.00
2023-04-10T16:01:32.057Z,102007.00
2023-04-10T16:04:00.814Z,102007.00
2023-04-10T16:06:29.533Z,102002.00
2023-04-10T16:08:58.112Z,102001.00
2023-04-10T16:11:28.191Z,102001.00
2023-04-10T16:13:56.946Z,102005.00
2023-04-10T16:16:25.868Z,102000.00
2023-04-10T16:18:55.020Z,101996.00
2023-04-10T16:21:23.695Z,102000.00
2023-04-10T16:23:52.804Z,101985.00
2023-04-10T16:26:21.623Z,101997.00
2023-04-10T16:28:51.766Z,102000.00
2023-04-10T16:31:20.506Z,102001.00
2023-04-10T16:33:49.325Z,101992.00
2023-04-10T16:36:18.062Z,101999.00
2023-04-10T16:38:49.856Z,101991.00
2023-04-10T16:41:20.893Z,101993.00
2023-04-10T16:43:51.433Z,101989.00
2023-04-10T16:46:20.172Z,101993.00
2023-04-10T16:48:48.988Z,101990.00
2023-04-10T16:51:19.074Z,101997.00
2023-04-10T16:53:48.020Z,101984.00
2023-04-10T16:56:16.820Z,101989.00
2023-04-10T16:58:45.554Z,101980.00
2023-04-10T17:01:18.139Z,101982.00
2023-04-10T17:03:47.604Z,101984.00
2023-04-10T17:06:16.821Z,101979.00
2023-04-10T17:08:45.860Z,101986.00
2023-04-10T17:11:14.797Z,101974.00
2023-04-10T17:13:43.830Z,101972.00
2023-04-10T17:16:12.515Z,101956.00
2023-04-10T17:18:43.214Z,101969.00
2023-04-10T17:21:13.231Z,101962.00
2023-04-10T17:23:42.485Z,101970.00
2023-04-10T17:26:15.513Z,101975.00
2023-04-10T17:28:46.667Z,101971.00
2023-04-10T17:31:16.475Z,101963.00
2023-04-10T17:33:46.620Z,101971.00
2023-04-10T17:36:15.761Z,101968.00
2023-04-10T17:38:44.795Z,101964.00
2023-04-10T17:41:17.140Z,101966.00
2023-04-10T17:43:45.688Z,101970.00
2023-04-10T17:46:15.835Z,101957.00
2023-04-10T17:48:46.799Z,101963.00
2023-04-10T17:51:15.628Z,101963.00
2023-04-10T17:53:45.076Z,101965.00
2023-04-10T17:56:20.870Z,101966.00
2023-04-10T17:58:49.620Z,101969.00
2023-04-10T18:01:29.675Z,101964.00
2023-04-10T18:04:00.426Z,101965.00
2023-04-10T18:06:29.350Z,101952.00
2023-04-10T18:08:58.182Z,101962.00
2023-04-10T18:11:27.361Z,101956.00
2023-04-10T18:13:56.037Z,101951.00
2023-04-10T18:16:24.648Z,101956.00
2023-04-10T18:18:54.116Z,101959.00
2023-04-10T18:21:24.305Z,101953.00
2023-04-10T18:23:53.054Z,101943.00
2023-04-10T18:26:21.713Z,101944.00
2023-04-10T18:28:50.430Z,101947.00
2023-04-10T18:31:19.427Z,101945.00
2023-04-10T18:33:56.168Z,101941.00
2023-04-10T18:36:30.150Z,101941.00
2023-04-10T18:38:58.857Z,101943.00
2023-04-10T18:41:28.745Z,101947.00
2023-04-10T18:44:04.976Z,101937.00
2023-04-10T18:46:36.548Z,101932.00
2023-04-10T18:49:06.609Z,101934.00
2023-04-10T18:51:40.351Z,101932.00
2023-04-10T18:54:09.607Z,101927.00
2023-04-10T18:56:38.522Z,101933.00
2023-04-10T18:59:07.315Z,101932.00
2023-04-10T19:01:36.224Z,101930.00
2023-04-10T19:04:05.228Z,101941.00
2023-04-10T19:06:35.228Z,101938.00
2023-04-10T19:09:05.428Z,101937.00
2023-04-10T19:11:34.333Z,101942.00
2023-04-10T19:14:03.040Z,101935.00
2023-04-10T19:19:02.604Z,101931.00
2023-04-10T19:21:31.682Z,101937.00
2023-04-10T19:24:00.619Z,101936.00
2023-04-10T19:26:30.765Z,101938.00
2023-04-10T19:29:00.949Z,101928.00
2023-04-10T19:31:30.918Z,101931.00
2023-04-10T19:34:02.496Z,101926.00
2023-04-10T19:36:31.466Z,101919.00
2023-04-10T19:39:00.180Z,101912.00
2023-04-10T19:41:30.191Z,101912.00
2023-04-10T19:43:59.393Z,101914.00
2023-04-10T19:46:28.329Z,101911.00
2023-04-10T19:48:57.096Z,101913.00
2023-04-10T19:51:25.773Z,101908.00
2023-04-10T19:53:55.873Z,101902.00
2023-04-10T19:56:26.687Z,101909.00
2023-04-10T19:58:57.752Z,101907.00
2023-04-10T20:01:26.802Z,101908.00
2023-04-10T20:03:55.640Z,101896.00
2023-04-10T20:06:24.697Z,101902.00
2023-04-10T20:08:53.693Z,101903.00
2023-04-10T20:11:22.940Z,101901.00
2023-04-10T20:13:53.002Z,101899.00
2023-04-10T20:16:24.294Z,101896.00
2023-04-10T20:18:55.441Z,101892.00
2023-04-10T20:21:24.187Z,101890.00
2023-04-10T20:23:52.796Z,101887.00
2023-04-10T20:26:21.468Z,101890.00
2023-04-10T20:28:50.086Z,101890.00
2023-04-10T20:31:18.797Z,101891.00
2023-04-10T20:33:49.131Z,101885.00
2023-04-10T20:36:17.918Z,101885.00
2023-04-10T20:38:46.619Z,101885.00
2023-04-10T20:41:15.251Z,101878.00
2023-04-10T20:43:43.871Z,101882.00
2023-04-10T20:46:12.479Z,101873.00
2023-04-10T20:48:41.291Z,101876.00
2023-04-10T20:51:11.531Z,101873.00
2023-04-10T20:53:40.156Z,101873.00
2023-04-10T20:56:09.448Z,101881.00
2023-04-10T20:58:38.239Z,101872.00
2023-04-10T21:01:09.762Z,101872.00
2023-04-10T21:03:47.307Z,101864.00
2023-04-10T21:06:18.259Z,101865.00
2023-04-10T21:08:47.922Z,101870.00
2023-04-10T21:11:16.472Z,101871.00
2023-04-10T21:13:45.050Z,101852.00
2023-04-10T21:16:13.750Z,101858.00
2023-04-10T21:18:42.412Z,101860.00
2023-04-10T21:21:11.167Z,101851.00
2023-04-10T21:23:41.124Z,101852.00
2023-04-10T21:26:10.234Z,101847.00
2023-04-10T21:28:39.038Z,101844.00
2023-04-10T21:31:08.182Z,101842.00
2023-04-10T21:33:36.734Z,101835.00
2023-04-10T21:36:06.519Z,101837.00
2023-04-10T21:38:35.431Z,101838.00
2023-04-10T21:41:05.598Z,101830.00
2023-04-10T21:43:35.610Z,101828.00
2023-04-10T21:46:04.266Z,101833.00
2023-04-10T21:48:32.999Z,101825.00
2023-04-10T21:51:03.514Z,101825.00
2023-04-10T21:53:32.161Z,101836.00
2023-04-10T21:56:00.723Z,101821.00
2023-04-10T21:58:32.299Z,101820.00
2023-04-10T22:01:01.733Z,101816.00
2023-04-10T22:03:30.575Z,101811.00
2023-04-10T22:05:59.279Z,101816.00
2023-04-10T22:08:27.884Z,101819.00
2023-04-10T22:10:56.594Z,101809.00
2023-04-10T22:13:30.727Z,101812.00
2023-04-10T22:16:03.013Z,101808.00
2023-04-10T22:18:31.862Z,101810.00
2023-04-10T22:21:00.487Z,101809.00
2023-04-10T22:23:29.171Z,101809.00
2023-04-10T22:26:00.268Z,101805.00
2023-04-10T22:28:29.351Z,101804.00
2023-04-10T22:31:01.027Z,101804.00
2023-04-10T22:33:33.946Z,101803.00
2023-04-10T22:36:05.759Z,101801.00
2023-04-10T22:38:37.999Z,101797.00
2023-04-10T22:41:07.974Z,101793.00
2023-04-10T22:43:36.913Z,101794.00
2023-04-10T22:46:07.304Z,101786.00
2023-04-10T22:48:36.005Z,101788.00
2023-04-10T22:51:04.719Z,101782.00
2023-04-10T22:53:39.385Z,101777.00
2023-04-10T22:56:14.048Z,101773.00
2023-04-10T22:58:43.953Z,101780.00
2023-04-10T23:01:24.235Z,101772.00
2023-04-10T23:03:55.044Z,101776.00
2023-04-10T23:06:28.395Z,101775.00
2023-04-10T23:08:58.869Z,101768.00
2023-04-10T23:11:31.093Z,101768.00
2023-04-10T23:14:06.453Z,101755.00
2023-04-10T23:16:41.227Z,101761.00
2023-04-10T23:19:10.336Z,101760.00
2023-04-10T23:21:40.628Z,101757.00
2023-04-10T23:24:12.431Z,101758.00
2023-04-10T23:26:43.930Z,101755.00
2023-04-10T23:29:15.322Z,101752.00
2023-04-10T23:31:48.866Z,101754.00
2023-04-10T23:34:23.507Z,101749.00
2023-04-10T23:36:53.381Z,101746.00
2023-04-10T23:39:22.030Z,101750.00
2023-04-10T23:41:50.610Z,101751.00
2023-04-10T23:44:19.245Z,101746.00
2023-04-10T23:46:49.498Z,101747.00
2023-04-10T23:49:27.146Z,101745.00
2023-04-10T23:52:04.368Z,101744.00
2023-04-10T23:54:37.458Z,101747.00
2023-04-10T23:57:27.591Z,101751.00
2023-04-10T23:59:56.349Z,101744.00
